createdAt,value
2023-03-17T00:00:44.495Z,62.07
2023-03-17T00:03:20.570Z,62.05
2023-03-17T00:05:50.459Z,62.17
2023-03-17T00:08:23.222Z,62.29
2023-03-17T00:10:52.539Z,62.74
2023-03-17T00:13:23.553Z,62.61
2023-03-17T00:15:56.559Z,62.35
2023-03-17T00:18:25.913Z,62.14
2023-03-17T00:20:54.937Z,62.78
2023-03-17T00:23:25.144Z,63.13
2023-03-17T00:25:54.182Z,62.92
2023-03-17T00:28:25.382Z,63.00
2023-03-17T00:30:57.464Z,62.92
2023-03-17T00:33:28.877Z,63.18
2023-03-17T00:35:59.650Z,62.88
2023-03-17T00:38:29.332Z,62.98
2023-03-17T00:40:58.290Z,62.77
2023-03-17T00:43:29.741Z,63.09
2023-03-17T00:45:59.675Z,63.57
2023-03-17T00:48:30.626Z,63.68
2023-03-17T00:50:59.838Z,63.53
2023-03-17T00:53:30.224Z,63.39
2023-03-17T00:55:59.415Z,63.48
2023-03-17T00:58:30.880Z,63.34
2023-03-17T01:01:00.544Z,63.51
2023-03-17T01:03:30.705Z,63.79
2023-03-17T01:06:00.134Z,63.68
2023-03-17T01:08:30.260Z,63.59
2023-03-17T01:11:00.128Z,63.30
2023-03-17T01:13:29.518Z,63.53
2023-03-17T01:15:58.633Z,63.60
2023-03-17T01:18:27.761Z,64.10
2023-03-17T01:20:56.944Z,64.09
2023-03-17T01:23:26.112Z,64.26
2023-03-17T01:25:55.916Z,64.45
2023-03-17T01:28:25.209Z,64.09
2023-03-17T01:30:54.120Z,63.92
2023-03-17T01:33:23.289Z,64.42
2023-03-17T01:35:52.571Z,64.10
2023-03-17T01:38:23.480Z,64.19
2023-03-17T01:40:54.432Z,63.85
2023-03-17T01:43:26.586Z,63.46
2023-03-17T01:46:28.900Z,63.78
2023-03-17T01:49:05.864Z,63.69
2023-03-17T01:51:40.703Z,63.98
2023-03-17T01:54:11.093Z,63.91
2023-03-17T01:56:43.028Z,63.57
2023-03-17T01:59:17.539Z,64.02
2023-03-17T02:01:50.722Z,63.99
2023-03-17T02:04:21.518Z,63.82
2023-03-17T02:06:57.844Z,64.28
2023-03-17T02:09:28.856Z,64.28
2023-03-17T02:12:00.620Z,64.02
2023-03-17T02:14:29.876Z,64.58
2023-03-17T02:16:59.175Z,64.67
2023-03-17T02:19:30.860Z,64.68
2023-03-17T02:22:00.951Z,64.62
2023-03-17T02:24:36.829Z,64.59
2023-03-17T02:27:12.630Z,64.63
2023-03-17T02:29:41.923Z,64.62
2023-03-17T02:32:14.333Z,64.53
2023-03-17T02:34:43.377Z,64.96
2023-03-17T02:37:15.052Z,64.90
2023-03-17T02:39:43.912Z,64.98
2023-03-17T02:42:15.712Z,64.89
2023-03-17T02:44:44.661Z,64.53
2023-03-17T02:47:17.073Z,64.83
2023-03-17T02:49:46.183Z,65.16
2023-03-17T02:52:15.218Z,65.49
2023-03-17T02:54:44.148Z,65.39
2023-03-17T02:57:13.247Z,65.17
2023-03-17T02:59:43.469Z,65.14
2023-03-17T03:02:12.581Z,65.38
2023-03-17T03:04:42.800Z,65.25
2023-03-17T03:07:12.373Z,65.73
2023-03-17T03:09:41.793Z,65.48
2023-03-17T03:12:11.449Z,65.27
2023-03-17T03:14:40.782Z,65.71
2023-03-17T03:17:10.285Z,65.66
2023-03-17T03:19:39.576Z,65.43
2023-03-17T03:22:08.718Z,65.08
2023-03-17T03:24:38.028Z,64.93
2023-03-17T03:27:07.161Z,65.32
2023-03-17T03:29:36.073Z,65.27
2023-03-17T03:32:06.267Z,65.78
2023-03-17T03:34:35.151Z,65.67
2023-03-17T03:37:04.124Z,65.91
2023-03-17T03:39:33.043Z,66.01
2023-03-17T03:42:01.960Z,65.52
2023-03-17T03:44:30.890Z,65.89
2023-03-17T03:46:59.741Z,66.46
2023-03-17T03:49:28.623Z,66.15
2023-03-17T03:51:58.284Z,66.56
2023-03-17T03:54:27.318Z,66.27
2023-03-17T03:56:56.231Z,66.63
2023-03-17T03:59:25.154Z,66.34
2023-03-17T04:01:54.072Z,66.15
2023-03-17T04:04:23.363Z,65.97
2023-03-17T04:07:05.673Z,66.33
2023-03-17T04:09:35.238Z,65.96
2023-03-17T04:12:08.640Z,65.78
2023-03-17T04:14:49.089Z,65.91
2023-03-17T04:17:34.901Z,66.01
2023-03-17T04:20:04.342Z,65.90
2023-03-17T04:22:33.417Z,66.00
2023-03-17T04:25:02.369Z,66.31
2023-03-17T04:35:00.508Z,65.02
2023-03-17T04:37:29.669Z,64.80
2023-03-17T04:39:58.667Z,64.89
2023-03-17T04:42:27.650Z,65.72
2023-03-17T04:44:56.747Z,66.08
2023-03-17T04:47:25.747Z,66.39
2023-03-17T04:49:54.911Z,66.49
2023-03-17T04:52:24.097Z,66.57
2023-03-17T04:54:53.266Z,66.59
2023-03-17T04:57:23.923Z,66.91
2023-03-17T04:59:55.282Z,67.03
2023-03-17T05:02:28.715Z,67.09
2023-03-17T05:04:57.859Z,66.89
2023-03-17T05:07:26.871Z,66.70
2023-03-17T05:09:56.742Z,66.88
2023-03-17T05:12:25.756Z,66.74
2023-03-17T05:14:54.623Z,67.01
2023-03-17T05:17:23.488Z,67.18
2023-03-17T05:19:52.413Z,67.10
2023-03-17T05:25:08.451Z,67.37
2023-03-17T05:27:37.613Z,67.73
2023-03-17T05:30:08.926Z,68.46
2023-03-17T05:32:38.056Z,67.51
2023-03-17T05:35:09.164Z,66.76
2023-03-17T05:37:38.574Z,66.36
2023-03-17T05:40:09.113Z,66.56
2023-03-17T05:42:38.567Z,66.50
2023-03-17T05:45:09.801Z,67.17
2023-03-17T05:47:38.899Z,68.06
2023-03-17T05:50:10.711Z,68.39
2023-03-17T05:52:40.053Z,67.09
2023-03-17T05:55:11.375Z,67.12
2023-03-17T05:57:42.645Z,68.41
2023-03-17T06:00:18.530Z,68.82
2023-03-17T06:02:47.649Z,69.34
2023-03-17T06:05:18.278Z,69.35
2023-03-17T06:07:54.813Z,68.36
2023-03-17T06:10:25.448Z,67.44
2023-03-17T06:12:55.289Z,67.20
2023-03-17T06:15:26.161Z,66.34
2023-03-17T06:17:55.151Z,65.41
2023-03-17T06:20:40.304Z,64.70
2023-03-17T06:23:09.385Z,64.08
2023-03-17T06:25:40.564Z,63.50
2023-03-17T06:28:09.974Z,63.42
2023-03-17T06:30:40.737Z,63.07
2023-03-17T06:33:10.657Z,62.79
2023-03-17T06:35:40.212Z,61.88
2023-03-17T06:38:09.185Z,60.92
2023-03-17T06:40:38.258Z,59.85
2023-03-17T06:43:07.933Z,58.68
2023-03-17T06:45:37.370Z,58.36
2023-03-17T06:48:07.485Z,58.15
2023-03-17T06:50:36.698Z,58.48
2023-03-17T06:53:06.760Z,58.43
2023-03-17T06:55:35.869Z,57.36
2023-03-17T06:58:04.823Z,55.35
2023-03-17T07:00:33.830Z,54.83
2023-03-17T07:03:04.420Z,54.59
2023-03-17T07:05:33.872Z,54.41
2023-03-17T07:08:03.177Z,54.00
2023-03-17T07:10:33.009Z,53.33
2023-03-17T07:13:02.555Z,53.48
2023-03-17T07:15:34.541Z,53.58
2023-03-17T07:18:03.988Z,53.47
2023-03-17T07:20:33.149Z,52.50
2023-03-17T07:23:08.854Z,51.58
2023-03-17T07:25:39.304Z,51.48
2023-03-17T07:28:08.412Z,51.51
2023-03-17T07:30:40.887Z,51.33
2023-03-17T07:33:11.225Z,51.50
2023-03-17T07:35:40.666Z,51.25
2023-03-17T07:38:09.589Z,50.78
2023-03-17T07:40:38.761Z,50.74
2023-03-17T07:43:07.881Z,50.34
2023-03-17T07:45:36.974Z,50.04
2023-03-17T07:48:08.334Z,49.76
2023-03-17T07:50:38.190Z,49.95
2023-03-17T07:53:07.415Z,49.98
2023-03-17T07:55:38.632Z,49.78
2023-03-17T07:58:08.943Z,49.35
2023-03-17T08:00:38.058Z,48.93
2023-03-17T08:03:10.779Z,48.14
2023-03-17T08:05:40.719Z,48.38
2023-03-17T08:08:10.259Z,48.02
2023-03-17T08:10:39.903Z,48.33
2023-03-17T08:13:10.130Z,48.15
2023-03-17T08:15:39.269Z,47.13
2023-03-17T08:18:08.808Z,47.29
2023-03-17T08:20:38.810Z,47.22
2023-03-17T08:23:08.254Z,46.61
2023-03-17T08:25:37.265Z,46.12
2023-03-17T08:28:06.555Z,46.48
2023-03-17T08:30:36.054Z,46.67
2023-03-17T08:33:05.774Z,46.65
2023-03-17T08:35:35.076Z,46.63
2023-03-17T08:38:04.730Z,46.81
2023-03-17T08:40:34.484Z,46.79
2023-03-17T08:43:04.531Z,45.66
2023-03-17T08:45:33.753Z,45.54
2023-03-17T08:48:04.119Z,45.55
2023-03-17T08:50:34.010Z,45.97
2023-03-17T08:53:03.906Z,45.99
2023-03-17T08:55:33.008Z,45.34
2023-03-17T08:58:02.316Z,44.60
2023-03-17T09:00:31.585Z,44.57
2023-03-17T09:03:01.150Z,44.63
2023-03-17T09:05:31.280Z,44.68
2023-03-17T09:08:00.735Z,44.81
2023-03-17T09:10:30.312Z,44.24
2023-03-17T09:13:03.578Z,44.10
2023-03-17T09:15:34.332Z,44.44
2023-03-17T09:18:04.270Z,44.67
2023-03-17T09:20:33.963Z,43.79
2023-03-17T09:23:09.975Z,44.10
2023-03-17T09:25:42.063Z,44.21
2023-03-17T09:28:12.976Z,44.00
2023-03-17T09:30:44.811Z,42.88
2023-03-17T09:33:15.482Z,42.38
2023-03-17T09:35:45.075Z,42.37
2023-03-17T09:38:14.227Z,41.81
2023-03-17T09:40:49.673Z,42.41
2023-03-17T09:43:32.019Z,42.13
2023-03-17T09:46:16.864Z,42.70
2023-03-17T09:48:58.817Z,42.65
2023-03-17T09:51:32.397Z,41.91
2023-03-17T09:54:04.177Z,42.27
2023-03-17T09:56:36.774Z,42.22
2023-03-17T09:59:15.998Z,42.47
2023-03-17T10:01:45.319Z,42.36
2023-03-17T10:04:17.530Z,42.18
2023-03-17T10:06:50.367Z,42.04
2023-03-17T10:09:27.049Z,42.55
2023-03-17T10:12:03.902Z,42.59
2023-03-17T10:14:54.759Z,42.02
2023-03-17T10:17:26.542Z,41.28
2023-03-17T10:20:01.219Z,41.48
2023-03-17T10:22:37.568Z,41.58
2023-03-17T10:25:14.377Z,40.72
2023-03-17T10:27:48.095Z,41.25
2023-03-17T10:30:19.274Z,41.20
2023-03-17T10:32:51.469Z,40.90
2023-03-17T10:35:24.176Z,40.73
2023-03-17T10:38:04.435Z,40.69
2023-03-17T10:40:41.223Z,40.98
2023-03-17T10:43:20.139Z,40.66
2023-03-17T10:45:59.060Z,40.92
2023-03-17T10:48:29.628Z,40.83
2023-03-17T10:50:59.972Z,40.44
2023-03-17T10:53:37.509Z,40.61
2023-03-17T10:56:11.575Z,40.90
2023-03-17T10:58:46.507Z,40.59
2023-03-17T11:01:21.908Z,39.20
2023-03-17T11:03:51.407Z,39.51
2023-03-17T11:06:31.160Z,39.04
2023-03-17T11:09:09.851Z,38.81
2023-03-17T11:11:46.365Z,38.74
2023-03-17T11:14:18.215Z,38.82
2023-03-17T11:16:54.301Z,38.37
2023-03-17T11:19:31.958Z,38.63
2023-03-17T11:22:10.330Z,38.22
2023-03-17T11:24:46.263Z,38.26
2023-03-17T11:27:25.116Z,38.76
2023-03-17T11:30:14.910Z,38.15
2023-03-17T11:32:55.044Z,37.74
2023-03-17T11:35:35.509Z,38.15
2023-03-17T11:38:19.521Z,38.53
2023-03-17T11:41:16.848Z,37.80
2023-03-17T11:44:13.414Z,37.95
2023-03-17T11:46:48.814Z,37.93
2023-03-17T11:49:22.503Z,38.16
2023-03-17T11:52:01.119Z,38.88
2023-03-17T11:54:43.765Z,38.45
2023-03-17T11:57:18.633Z,38.62
2023-03-17T11:59:48.430Z,38.92
2023-03-17T12:02:23.514Z,38.56
2023-03-17T12:04:56.954Z,38.67
2023-03-17T12:07:30.452Z,38.76
2023-03-17T12:10:08.541Z,38.55
2023-03-17T12:12:44.556Z,37.66
2023-03-17T12:15:20.695Z,37.42
2023-03-17T12:17:58.599Z,37.44
2023-03-17T12:20:35.398Z,37.78
2023-03-17T12:23:12.430Z,38.35
2023-03-17T12:25:50.866Z,38.24
2023-03-17T12:28:24.672Z,37.83
2023-03-17T12:31:00.085Z,38.12
2023-03-17T12:33:36.954Z,37.80
2023-03-17T12:36:08.589Z,37.61
2023-03-17T12:38:41.238Z,37.25
2023-03-17T12:41:34.112Z,36.76
2023-03-17T12:44:08.302Z,37.20
2023-03-17T12:47:02.297Z,37.04
2023-03-17T12:50:10.712Z,37.62
2023-03-17T12:53:02.390Z,37.45
2023-03-17T12:55:35.731Z,36.85
2023-03-17T12:58:07.691Z,36.71
2023-03-17T13:00:50.558Z,36.97
2023-03-17T13:03:25.268Z,36.43
2023-03-17T13:05:54.884Z,36.55
2023-03-17T13:08:30.475Z,37.12
2023-03-17T13:11:27.077Z,37.27
2023-03-17T13:14:15.875Z,37.15
2023-03-17T13:16:49.312Z,37.18
2023-03-17T13:19:33.532Z,36.58
2023-03-17T13:22:34.959Z,36.61
2023-03-17T13:25:30.164Z,36.83
2023-03-17T13:28:22.692Z,36.71
2023-03-17T13:31:09.206Z,36.84
2023-03-17T13:33:44.542Z,37.13
2023-03-17T13:36:37.672Z,36.72
2023-03-17T13:39:52.380Z,36.56
2023-03-17T13:42:43.611Z,36.20
2023-03-17T13:45:37.873Z,35.79
2023-03-17T13:48:32.696Z,35.80
2023-03-17T13:51:18.142Z,35.30
2023-03-17T13:53:53.832Z,35.40
2023-03-17T13:56:30.080Z,35.61
2023-03-17T13:59:08.749Z,35.89
2023-03-17T14:01:43.415Z,35.62
2023-03-17T14:04:18.133Z,36.15
2023-03-17T14:07:18.379Z,35.71
2023-03-17T14:09:49.211Z,35.52
2023-03-17T14:12:23.176Z,35.41
2023-03-17T14:15:06.494Z,35.20
2023-03-17T14:17:52.717Z,35.31
2023-03-17T14:20:24.688Z,35.91
2023-03-17T14:22:57.350Z,35.57
2023-03-17T14:25:31.201Z,35.73
2023-03-17T14:28:04.055Z,35.80
2023-03-17T14:30:34.592Z,35.30
2023-03-17T14:33:06.738Z,35.53
2023-03-17T14:35:39.350Z,35.87
2023-03-17T14:38:19.261Z,36.01
2023-03-17T14:40:49.029Z,36.22
2023-03-17T14:43:18.520Z,36.09
2023-03-17T14:45:52.457Z,35.60
2023-03-17T14:48:27.341Z,35.88
2023-03-17T14:51:08.202Z,36.04
2023-03-17T14:53:42.735Z,36.01
2023-03-17T14:56:12.426Z,35.65
2023-03-17T14:58:46.367Z,35.47
2023-03-17T15:01:20.567Z,35.20
2023-03-17T15:03:57.974Z,35.73
2023-03-17T15:06:29.660Z,36.21
2023-03-17T15:09:04.318Z,36.72
2023-03-17T15:11:41.951Z,37.10
2023-03-17T15:14:22.492Z,37.15
2023-03-17T15:16:53.330Z,37.44
2023-03-17T15:19:28.746Z,37.37
2023-03-17T15:22:00.243Z,37.59
2023-03-17T15:24:55.701Z,37.22
2023-03-17T15:27:30.398Z,37.08
2023-03-17T15:32:56.037Z,37.30
2023-03-17T15:35:27.467Z,37.51
2023-03-17T15:37:59.890Z,37.91
2023-03-17T15:40:29.688Z,38.20
2023-03-17T15:43:00.251Z,38.08
2023-03-17T15:45:29.306Z,38.45
2023-03-17T15:47:58.589Z,38.49
2023-03-17T15:50:31.034Z,38.79
2023-03-17T15:53:05.592Z,38.76
2023-03-17T15:59:51.903Z,38.24
2023-03-17T16:02:57.237Z,38.41
2023-03-17T16:05:32.797Z,38.57
2023-03-17T16:08:04.811Z,38.66
2023-03-17T16:11:08.009Z,38.82
2023-03-17T16:14:10.739Z,39.03
2023-03-17T16:17:50.725Z,39.15
2023-03-17T16:20:05.630Z,39.37
2023-03-17T16:23:11.682Z,39.16
2023-03-17T16:25:59.278Z,39.13
2023-03-17T16:32:46.348Z,39.78
2023-03-17T16:36:15.704Z,39.58
2023-03-17T16:38:44.073Z,39.85
2023-03-17T16:46:16.474Z,40.27
2023-03-17T16:54:43.630Z,40.68
2023-03-17T16:57:19.391Z,41.21
2023-03-17T16:57:39.570Z,40.37
2023-03-17T16:57:50.871Z,40.62
2023-03-17T16:59:50.374Z,41.13
2023-03-17T17:02:27.068Z,41.80
2023-03-17T17:05:09.308Z,42.02
2023-03-17T17:07:56.073Z,41.78
2023-03-17T17:10:54.349Z,42.01
2023-03-17T17:23:15.706Z,42.14
2023-03-17T17:29:00.475Z,42.10
2023-03-17T17:32:35.457Z,42.28
2023-03-17T18:04:03.806Z,41.44
2023-03-17T18:38:55.454Z,42.83
2023-03-17T18:39:40.818Z,41.84
2023-03-17T18:41:45.234Z,43.02
2023-03-17T18:44:21.388Z,42.98
2023-03-17T18:50:35.269Z,43.11
2023-03-17T18:54:00.137Z,43.25
2023-03-17T18:56:43.317Z,43.24
2023-03-17T18:59:18.020Z,43.43
2023-03-17T19:02:00.931Z,43.54
2023-03-17T19:05:12.209Z,43.73
2023-03-17T19:08:06.990Z,44.03
2023-03-17T19:10:57.059Z,43.92
2023-03-17T19:13:29.783Z,43.89
2023-03-17T19:31:48.698Z,43.81
2023-03-17T19:35:15.559Z,43.98
2023-03-17T19:45:23.146Z,44.18
2023-03-17T19:47:38.337Z,44.19
2023-03-17T19:47:55.064Z,43.88
2023-03-17T19:50:30.930Z,44.29
2023-03-17T19:53:06.664Z,44.58
2023-03-17T19:55:43.925Z,44.46
2023-03-17T19:58:21.970Z,44.37
2023-03-17T20:00:56.703Z,44.54
2023-03-17T20:03:38.007Z,44.81
2023-03-17T20:06:11.160Z,44.95
2023-03-17T20:08:45.574Z,45.08
2023-03-17T20:11:23.997Z,45.09
2023-03-17T20:13:56.569Z,45.01
2023-03-17T20:16:27.654Z,45.12
2023-03-17T20:18:59.328Z,45.16
2023-03-17T20:21:42.271Z,45.15
2023-03-17T20:24:15.012Z,45.29
2023-03-17T20:26:48.861Z,45.30
2023-03-17T20:29:26.820Z,45.44
2023-03-17T20:32:01.138Z,45.48
2023-03-17T20:34:31.529Z,45.55
2023-03-17T20:37:04.291Z,45.40
2023-03-17T20:39:44.873Z,45.56
2023-03-17T20:42:17.561Z,45.51
2023-03-17T20:44:52.896Z,45.52
2023-03-17T20:47:25.932Z,45.54
2023-03-17T20:49:58.536Z,45.64
2023-03-17T20:52:30.696Z,45.40
2023-03-17T20:55:02.562Z,45.46
2023-03-17T20:57:33.690Z,45.56
2023-03-17T21:00:08.282Z,45.45
2023-03-17T21:02:39.457Z,45.42
2023-03-17T21:05:13.006Z,45.49
2023-03-17T21:07:46.853Z,45.38
2023-03-17T21:10:21.661Z,45.37
2023-03-17T21:12:54.150Z,45.51
2023-03-17T21:15:24.503Z,45.60
2023-03-17T21:17:54.929Z,45.75
2023-03-17T21:20:25.751Z,45.73
2023-03-17T21:22:55.804Z,45.78
2023-03-17T21:25:29.279Z,45.70
2023-03-17T21:28:00.156Z,45.62
2023-03-17T21:30:33.498Z,45.83
2023-03-17T21:33:03.852Z,45.79
2023-03-17T21:35:36.982Z,45.76
2023-03-17T21:38:08.589Z,45.67
2023-03-17T21:40:38.068Z,45.99
2023-03-17T21:43:08.730Z,46.06
2023-03-17T21:45:38.638Z,45.83
2023-03-17T21:48:25.632Z,45.94
2023-03-17T21:50:59.938Z,45.92
2023-03-17T21:53:31.942Z,45.65
2023-03-17T22:10:46.028Z,45.50
2023-03-17T22:13:14.921Z,45.65
2023-03-17T22:15:44.409Z,46.18
2023-03-17T22:18:13.955Z,46.65
2023-03-17T22:23:47.507Z,46.97
2023-03-17T22:26:19.546Z,47.20
2023-03-17T22:28:49.975Z,47.21
2023-03-17T22:32:00.165Z,47.40
2023-03-17T22:34:32.296Z,47.47
2023-03-17T22:37:02.571Z,47.63
2023-03-17T22:39:34.995Z,47.81
2023-03-17T22:42:04.194Z,47.97
2023-03-17T22:44:33.203Z,47.92
2023-03-17T22:47:02.312Z,47.98
2023-03-17T22:49:31.700Z,47.73
2023-03-17T22:52:00.628Z,48.02
2023-03-17T22:54:29.560Z,48.38
2023-03-17T22:57:14.106Z,48.19
2023-03-17T22:59:52.951Z,48.29
2023-03-17T23:02:21.920Z,48.18
2023-03-17T23:04:51.361Z,48.42
2023-03-17T23:07:20.644Z,48.50
2023-03-17T23:09:49.594Z,48.53
2023-03-17T23:12:22.568Z,48.74
2023-03-17T23:14:51.841Z,48.89
2023-03-17T23:17:20.752Z,48.97
2023-03-17T23:19:50.007Z,49.49
2023-03-17T23:22:20.535Z,49.24
2023-03-17T23:24:50.333Z,49.36
2023-03-17T23:27:19.178Z,49.51
2023-03-17T23:29:48.082Z,49.28
2023-03-17T23:32:17.210Z,49.08
2023-03-17T23:34:46.537Z,49.45
2023-03-17T23:37:16.009Z,49.33
2023-03-17T23:39:45.321Z,49.69
2023-03-17T23:42:43.438Z,49.95
2023-03-17T23:48:46.138Z,49.69
